Time;durP1;ratioP1;P1;durP2;ratioP2;P2;SDS_P1;SDS_P2;PMS_P1;PMS_P2;Temp;Humidity;BMP_temperature;BMP_pressure;BME280_temperature;BME280_humidity;BME280_pressure;Samples;Min_cycle;Max_cycle;Signal;HPM_P1;HPM_P2
2022/07/30 00:00:15;;;;;;;6.13;2.78;;;25.70;47.00;;;;;;7368236;19;20029;-79
2022/07/30 00:02:43;;;;;;;6.35;3.28;;;25.80;47.20;;;;;;7368474;19;20042;-80
2022/07/30 00:05:12;;;;;;;8.80;3.25;;;25.80;47.40;;;;;;7390632;19;20015;-80
2022/07/30 00:07:41;;;;;;;5.80;3.00;;;25.80;47.80;;;;;;7367432;19;20039;-80
2022/07/30 00:10:13;;;;;;;6.30;3.00;;;25.80;48.00;;;;;;7368405;19;20018;-80
2022/07/30 00:12:41;;;;;;;6.82;2.75;;;25.70;47.80;;;;;;7369789;19;20090;-80
2022/07/30 00:15:11;;;;;;;5.25;2.53;;;25.80;47.90;;;;;;7366676;19;20105;-80
2022/07/30 00:17:40;;;;;;;4.95;2.45;;;25.70;47.80;;;;;;7368764;19;20790;-80
2022/07/30 00:20:09;;;;;;;5.50;2.78;;;25.60;47.70;;;;;;7389170;19;20011;-80
2022/07/30 00:22:38;;;;;;;7.13;3.08;;;25.60;47.70;;;;;;7368989;19;20082;-80
2022/07/30 00:25:08;;;;;;;5.35;2.80;;;25.50;47.70;;;;;;7368466;19;20011;-80
2022/07/30 00:27:39;;;;;;;7.95;2.42;;;25.50;47.70;;;;;;7367617;19;20474;-80
2022/07/30 00:30:10;;;;;;;4.10;2.58;;;25.40;47.60;;;;;;7367241;19;20106;-77
2022/07/30 00:32:38;;;;;;;5.43;2.60;;;25.50;47.80;;;;;;7368366;19;20086;-77
2022/07/30 00:35:09;;;;;;;5.18;3.03;;;25.50;47.90;;;;;;7389414;19;20017;-77
2022/07/30 00:37:37;;;;;;;7.43;2.60;;;25.50;47.90;;;;;;7365856;19;20010;-77
2022/07/30 00:40:08;;;;;;;5.22;2.92;;;25.50;47.90;;;;;;7365862;19;20010;-77
2022/07/30 00:42:44;;;;;;;4.95;2.60;;;25.50;48.10;;;;;;7368331;19;20022;-77
2022/07/30 00:45:14;;;;;;;5.70;2.90;;;25.50;48.20;;;;;;7367688;19;20011;-77
2022/07/30 00:47:43;;;;;;;5.35;3.03;;;25.50;48.40;;;;;;7366277;19;20014;-77
2022/07/30 00:50:16;;;;;;;5.40;2.58;;;25.50;48.40;;;;;;7387189;19;20089;-76
2022/07/30 00:52:45;;;;;;;5.93;2.88;;;25.50;48.60;;;;;;7367308;19;20021;-77
2022/07/30 00:55:16;;;;;;;7.80;2.90;;;25.50;48.40;;;;;;7368055;19;20312;-77
2022/07/30 00:57:51;;;;;;;4.65;2.60;;;25.50;48.40;;;;;;7368820;19;20021;-77
2022/07/30 01:00:24;;;;;;;5.20;2.72;;;25.50;48.40;;;;;;7374738;19;20038;-77
2022/07/30 01:02:53;;;;;;;4.30;2.90;;;25.50;48.40;;;;;;7372219;19;20031;-76
2022/07/30 01:05:22;;;;;;;6.43;3.15;;;25.50;48.60;;;;;;7393812;19;20053;-77
2022/07/30 01:07:51;;;;;;;9.32;3.90;;;25.50;48.70;;;;;;7372278;19;20022;-76
2022/07/30 01:10:19;;;;;;;7.70;3.45;;;25.40;48.70;;;;;;7373139;19;20813;-77
2022/07/30 01:12:53;;;;;;;5.25;2.60;;;25.40;48.80;;;;;;7374798;19;20122;-76
2022/07/30 01:15:23;;;;;;;12.35;3.10;;;25.40;48.70;;;;;;7373895;19;20026;-76
2022/07/30 01:17:55;;;;;;;5.63;2.80;;;25.40;48.80;;;;;;7374487;19;20044;-77
2022/07/30 01:20:31;;;;;;;6.10;2.70;;;25.40;48.80;;;;;;7394310;19;20042;-76
2022/07/30 01:23:10;;;;;;;3.22;2.72;;;25.30;48.80;;;;;;7372582;19;20082;-77
2022/07/30 01:25:56;;;;;;;5.85;2.70;;;25.30;49.00;;;;;;7373928;19;20048;-78
2022/07/30 01:28:30;;;;;;;4.50;2.70;;;25.20;49.10;;;;;;7370987;19;20019;-77
2022/07/30 01:31:00;;;;;;;6.22;2.88;;;25.20;48.80;;;;;;7374699;19;20044;-77
2022/07/30 01:33:30;;;;;;;3.57;2.33;;;25.20;48.80;;;;;;7373498;19;20038;-77
2022/07/30 01:36:01;;;;;;;4.95;2.70;;;25.20;48.90;;;;;;7372805;19;20021;-77
2022/07/30 01:38:32;;;;;;;6.38;2.67;;;25.10;48.80;;;;;;7378225;19;20010;-78
2022/07/30 01:41:05;;;;;;;4.88;2.53;;;25.10;48.70;;;;;;7395219;19;20026;-77
2022/07/30 01:43:36;;;;;;;3.78;2.65;;;25.10;49.00;;;;;;7373494;19;20014;-77
2022/07/30 01:46:05;;;;;;;;;;;25.10;49.00;;;;;;7373185;19;20340;-77
2022/07/30 01:48:39;;;;;;;5.93;2.40;;;25.10;48.70;;;;;;7372668;19;20006;-77
2022/07/30 01:51:08;;;;;;;5.50;2.63;;;25.10;49.00;;;;;;7372372;19;20006;-77
2022/07/30 01:53:40;;;;;;;4.60;2.22;;;25.00;48.60;;;;;;7371835;19;20093;-77
2022/07/30 01:56:15;;;;;;;6.20;2.53;;;24.90;48.50;;;;;;7396616;19;20026;-76
2022/07/30 01:58:44;;;;;;;2.50;2.25;;;24.90;48.80;;;;;;7373845;19;20022;-77
2022/07/30 02:01:13;;;;;;;3.17;2.50;;;24.90;49.00;;;;;;7370542;19;20019;-76
2022/07/30 02:03:42;;;;;;;3.47;2.58;;;24.90;49.00;;;;;;7371511;19;20833;-76
2022/07/30 02:06:15;;;;;;;5.25;3.10;;;24.90;49.10;;;;;;7370361;19;20033;-76
2022/07/30 02:08:48;;;;;;;6.28;2.85;;;24.90;49.30;;;;;;7370149;19;20543;-76
2022/07/30 02:12:27;;;;;;;6.35;2.97;;;24.80;49.50;;;;;;7391333;19;20031;-77
2022/07/30 02:14:13;;;;;;;5.25;2.92;;;24.80;49.50;;;;;;7372686;19;20030;-76
2022/07/30 02:16:46;;;;;;;8.13;3.10;;;24.70;49.50;;;;;;7372895;19;20027;-78
2022/07/30 02:19:18;;;;;;;4.25;2.78;;;24.70;49.60;;;;;;7380041;19;20007;-76
2022/07/30 02:21:49;;;;;;;5.15;3.00;;;24.70;50.00;;;;;;7393480;19;20010;-77
2022/07/30 02:24:21;;;;;;;;;;;24.60;49.90;;;;;;7407368;19;20022;-76
2022/07/30 02:26:57;;;;;;;6.20;2.78;;;24.70;49.60;;;;;;7400056;19;19912;-78
2022/07/30 02:29:26;;;;;;;5.50;2.72;;;24.60;49.60;;;;;;7400782;19;20090;-76
2022/07/30 02:31:57;;;;;;;5.65;2.83;;;24.60;49.40;;;;;;7375638;19;20015;-75
2022/07/30 02:34:27;;;;;;;6.82;2.80;;;24.60;49.20;;;;;;7371349;19;20034;-78
2022/07/30 02:36:57;;;;;;;5.45;2.50;;;24.60;49.30;;;;;;7373706;19;20101;-78
2022/07/30 02:39:31;;;;;;;5.82;2.35;;;24.60;49.30;;;;;;7373033;19;20022;-77
2022/07/30 02:42:04;;;;;;;6.05;2.63;;;24.50;49.40;;;;;;7368574;19;20090;-76
2022/07/30 02:44:33;;;;;;;3.25;2.30;;;24.50;49.30;;;;;;7367944;19;20019;-77
2022/07/30 02:47:04;;;;;;;6.10;2.42;;;24.40;49.10;;;;;;7392497;19;20026;-77
2022/07/30 02:49:35;;;;;;;5.70;2.72;;;24.40;49.40;;;;;;7368812;19;20405;-77
2022/07/30 02:52:07;;;;;;;7.57;2.90;;;24.40;49.80;;;;;;7370646;19;20014;-76
2022/07/30 02:54:40;;;;;;;5.20;2.70;;;24.40;50.10;;;;;;7369964;19;20015;-77
2022/07/30 02:57:13;;;;;;;6.30;2.80;;;24.30;50.00;;;;;;7371990;19;20039;-78
2022/07/30 02:59:43;;;;;;;5.35;2.67;;;24.30;50.00;;;;;;7368174;19;20078;-77
2022/07/30 03:02:14;;;;;;;4.75;2.40;;;24.30;49.90;;;;;;7390381;19;20011;-77
2022/07/30 03:04:44;;;;;;;6.83;2.80;;;24.20;49.80;;;;;;7370070;19;20116;-77
2022/07/30 03:07:13;;;;;;;7.50;2.90;;;24.20;50.00;;;;;;7370910;19;20276;-76
2022/07/30 03:09:44;;;;;;;5.35;2.60;;;24.20;50.10;;;;;;7368119;19;20291;-76
2022/07/30 03:12:17;;;;;;;7.22;2.80;;;24.20;50.20;;;;;;7369919;19;20026;-76
2022/07/30 03:14:46;;;;;;;4.72;2.53;;;24.20;50.40;;;;;;7369175;19;20018;-76
2022/07/30 03:17:17;;;;;;;4.30;2.75;;;24.20;50.20;;;;;;7390035;19;20043;-77
2022/07/30 03:19:49;;;;;;;6.45;2.90;;;24.20;49.90;;;;;;7369389;19;20082;-76
2022/07/30 03:22:21;;;;;;;4.93;2.90;;;24.10;50.00;;;;;;7367082;19;20035;-77
2022/07/30 03:24:50;;;;;;;;;;;24.10;50.10;;;;;;7372281;19;20031;-77
2022/07/30 03:27:23;;;;;;;4.15;2.85;;;24.20;50.80;;;;;;7371290;19;19940;-78
2022/07/30 03:29:55;;;;;;;8.55;2.60;;;24.10;50.60;;;;;;7369794;19;20493;-77
2022/07/30 03:32:25;;;;;;;5.65;3.28;;;24.10;50.60;;;;;;7392089;19;20345;-77
2022/07/30 03:34:54;;;;;;;5.80;3.50;;;24.00;50.40;;;;;;7368595;19;20026;-77
2022/07/30 03:37:23;;;;;;;10.70;2.97;;;24.00;50.40;;;;;;7368995;19;20098;-77
2022/07/30 03:39:52;;;;;;;5.10;2.67;;;23.90;50.50;;;;;;7369509;19;20025;-77
2022/07/30 03:42:24;;;;;;;7.78;2.70;;;23.80;50.60;;;;;;7368004;19;20388;-77
2022/07/30 03:44:54;;;;;;;6.60;2.60;;;23.80;50.60;;;;;;7370826;19;20090;-77
2022/07/30 03:47:24;;;;;;;7.80;4.78;;;23.80;50.50;;;;;;7390887;19;20492;-77
2022/07/30 03:49:53;;;;;;;7.88;3.13;;;23.70;50.70;;;;;;7369482;19;20014;-77
2022/07/30 03:52:23;;;;;;;4.30;2.58;;;23.70;50.90;;;;;;7370024;19;20038;-76
2022/07/30 03:54:52;;;;;;;4.15;2.65;;;23.70;50.60;;;;;;7367198;19;21178;-77
2022/07/30 03:57:24;;;;;;;5.90;2.97;;;23.60;50.70;;;;;;7369284;19;20094;-77
2022/07/30 03:59:53;;;;;;;7.72;2.63;;;23.60;50.90;;;;;;7367833;19;20025;-77
2022/07/30 04:02:22;;;;;;;4.50;2.70;;;23.50;51.20;;;;;;7391131;19;20018;-77
2022/07/30 04:04:50;;;;;;;4.25;2.63;;;23.50;51.30;;;;;;7367926;19;20092;-77
2022/07/30 04:07:20;;;;;;;3.25;2.70;;;23.40;51.30;;;;;;7368925;19;20102;-77
2022/07/30 04:09:48;;;;;;;6.90;3.40;;;23.40;51.40;;;;;;7366845;19;20577;-77
2022/07/30 04:12:17;;;;;;;4.53;3.20;;;23.40;51.30;;;;;;7369554;19;20046;-77
2022/07/30 04:14:52;;;;;;;4.93;2.83;;;23.30;51.50;;;;;;7369560;19;20022;-78
2022/07/30 04:17:26;;;;;;;9.30;3.10;;;23.30;51.50;;;;;;7389938;19;20307;-77
2022/07/30 04:19:57;;;;;;;5.57;2.88;;;23.30;51.50;;;;;;7366185;19;20010;-77
2022/07/30 04:22:33;;;;;;;6.10;3.00;;;23.30;51.50;;;;;;7367084;19;20025;-77
2022/07/30 04:25:03;;;;;;;5.85;2.97;;;23.30;51.50;;;;;;7367890;19;20343;-77
2022/07/30 04:27:33;;;;;;;6.05;2.85;;;23.30;51.50;;;;;;7367501;19;20017;-77
2022/07/30 04:30:06;;;;;;;5.57;2.83;;;23.30;51.50;;;;;;7368675;19;20365;-77
2022/07/30 04:32:36;;;;;;;5.65;2.90;;;23.30;51.50;;;;;;7366927;19;20363;-78
2022/07/30 04:35:05;;;;;;;8.45;3.20;;;23.30;51.40;;;;;;7397673;19;20038;-78
2022/07/30 04:37:34;;;;;;;7.15;3.17;;;23.40;51.50;;;;;;7373767;19;20472;-77
2022/07/30 04:40:03;;;;;;;6.20;3.10;;;23.30;51.60;;;;;;7375357;19;20090;-77
2022/07/30 04:42:32;;;;;;;9.57;3.53;;;23.20;51.60;;;;;;7375518;19;20030;-77
2022/07/30 04:45:01;;;;;;;5.95;2.97;;;23.20;51.70;;;;;;7376572;19;20465;-77
2022/07/30 04:47:32;;;;;;;3.63;3.00;;;23.10;51.80;;;;;;7386726;19;20115;-77
2022/07/30 04:50:01;;;;;;;6.30;3.08;;;23.10;51.90;;;;;;7393625;19;20038;-77
2022/07/30 04:52:30;;;;;;;4.30;2.92;;;23.20;52.20;;;;;;7373397;19;20017;-77
2022/07/30 04:55:04;;;;;;;3.67;2.88;;;23.20;52.30;;;;;;7373424;19;20098;-76
2022/07/30 04:57:33;;;;;;;4.45;2.90;;;23.20;52.90;;;;;;7374864;19;20078;-76
2022/07/30 05:00:03;;;;;;;6.80;3.10;;;23.20;52.30;;;;;;7373634;19;20018;-77
2022/07/30 05:02:38;;;;;;;4.80;3.08;;;23.20;53.00;;;;;;7372866;19;20086;-77
2022/07/30 05:05:08;;;;;;;5.72;3.22;;;23.20;52.50;;;;;;7393074;19;20518;-76
2022/07/30 05:07:38;;;;;;;5.13;3.10;;;23.20;52.50;;;;;;7372643;19;20130;-76
2022/07/30 05:10:08;;;;;;;5.53;3.10;;;23.30;52.40;;;;;;7375290;19;20089;-76
2022/07/30 05:12:42;;;;;;;7.15;3.10;;;23.20;52.30;;;;;;7369574;19;20378;-77
2022/07/30 05:15:13;;;;;;;9.20;3.30;;;23.20;52.40;;;;;;7375583;19;20021;-77
2022/07/30 05:17:44;;;;;;;6.25;3.53;;;23.20;52.50;;;;;;7373548;19;20318;-76
2022/07/30 05:20:13;;;;;;;6.32;3.20;;;23.20;52.50;;;;;;7394148;19;20022;-76
2022/07/30 05:22:42;;;;;;;5.32;3.20;;;23.20;52.60;;;;;;7373768;19;20006;-76
2022/07/30 05:25:11;;;;;;;5.15;2.95;;;23.30;52.70;;;;;;7372621;19;20089;-76
2022/07/30 05:27:40;;;;;;;4.80;2.88;;;23.30;52.70;;;;;;7373540;19;20098;-76
2022/07/30 05:30:10;;;;;;;5.72;2.92;;;23.40;52.40;;;;;;7372538;19;20018;-76
2022/07/30 05:32:39;;;;;;;2.85;2.65;;;23.40;52.30;;;;;;7374299;19;20394;-76
2022/07/30 05:35:11;;;;;;;10.25;3.42;;;23.40;52.40;;;;;;7395519;19;20022;-76
2022/07/30 05:37:40;;;;;;;6.63;2.88;;;23.40;52.40;;;;;;7375526;19;20030;-76
2022/07/30 05:40:10;;;;;;;4.85;2.90;;;23.40;52.40;;;;;;7373326;19;20454;-76
2022/07/30 05:42:39;;;;;;;3.30;2.88;;;23.50;52.50;;;;;;7373438;19;20022;-76
2022/07/30 05:45:09;;;;;;;13.52;2.97;;;23.50;52.60;;;;;;7373124;19;20078;-77
2022/07/30 05:47:41;;;;;;;6.75;3.00;;;23.60;52.50;;;;;;7374750;19;20014;-77
2022/07/30 05:50:14;;;;;;;3.97;3.10;;;23.60;52.50;;;;;;7392758;19;20024;-76
2022/07/30 05:52:42;;;;;;;5.32;2.97;;;23.60;52.30;;;;;;7374137;19;20019;-76
2022/07/30 05:55:12;;;;;;;6.95;3.15;;;23.70;52.30;;;;;;7371629;19;20693;-76
2022/07/30 05:57:41;;;;;;;6.47;2.90;;;23.70;52.20;;;;;;7376385;19;20021;-76
2022/07/30 06:00:12;;;;;;;6.75;3.38;;;23.70;51.90;;;;;;7372102;19;20014;-78
2022/07/30 06:02:42;;;;;;;3.53;2.92;;;23.80;51.80;;;;;;7375346;19;20509;-76
2022/07/30 06:05:13;;;;;;;6.25;3.22;;;23.70;51.90;;;;;;7394537;19;20511;-77
2022/07/30 06:07:42;;;;;;;7.47;2.92;;;23.70;51.90;;;;;;7372600;19;20031;-76
2022/07/30 06:10:11;;;;;;;6.93;3.00;;;23.80;52.10;;;;;;7373477;19;20103;-78
2022/07/30 06:12:41;;;;;;;3.63;2.63;;;23.90;52.10;;;;;;7374520;19;20094;-77
2022/07/30 06:15:12;;;;;;;10.13;3.08;;;23.90;51.90;;;;;;7375694;19;20006;-77
2022/07/30 06:17:44;;;;;;;;;;;23.90;51.70;;;;;;7380399;19;20018;-76
2022/07/30 06:20:21;;;;;;;7.60;2.90;;;24.10;51.80;;;;;;7415876;19;19954;-77
2022/07/30 06:22:52;;;;;;;4.80;2.83;;;24.10;51.70;;;;;;7405449;19;20018;-76
2022/07/30 06:25:21;;;;;;;4.05;2.75;;;24.20;51.60;;;;;;7392945;19;20018;-76
2022/07/30 06:27:50;;;;;;;7.80;2.78;;;24.10;51.60;;;;;;7378904;19;20053;-77
2022/07/30 06:30:21;;;;;;;7.20;2.67;;;24.30;51.80;;;;;;7373544;19;20018;-76
2022/07/30 06:32:53;;;;;;;9.30;3.45;;;24.30;51.90;;;;;;7371600;19;20080;-77
2022/07/30 06:35:25;;;;;;;5.72;3.00;;;24.40;52.00;;;;;;7395309;19;20015;-76
2022/07/30 06:37:58;;;;;;;5.13;2.80;;;24.40;51.90;;;;;;7372413;19;20011;-77
2022/07/30 06:40:31;;;;;;;9.98;3.03;;;24.50;51.80;;;;;;7369991;19;20093;-77
2022/07/30 06:43:01;;;;;;;3.83;2.60;;;24.60;51.80;;;;;;7372752;19;20468;-77
2022/07/30 06:45:31;;;;;;;4.43;2.50;;;24.60;51.80;;;;;;7371640;19;20014;-76
2022/07/30 06:48:01;;;;;;;6.65;2.60;;;24.70;51.90;;;;;;7368603;19;20037;-76
2022/07/30 06:50:33;;;;;;;7.25;3.05;;;24.80;51.80;;;;;;7373435;19;20082;-77
2022/07/30 06:53:04;;;;;;;13.48;2.75;;;24.80;51.70;;;;;;7394476;19;20020;-78
2022/07/30 06:55:33;;;;;;;7.30;3.15;;;24.90;51.30;;;;;;7368259;19;20022;-76
2022/07/30 06:58:03;;;;;;;4.50;2.78;;;24.90;51.00;;;;;;7372213;19;20024;-77
2022/07/30 07:00:36;;;;;;;7.03;2.85;;;24.90;50.60;;;;;;7371430;19;20057;-77
2022/07/30 07:03:05;;;;;;;12.05;3.40;;;24.90;50.40;;;;;;7367500;19;20022;-78
2022/07/30 07:05:38;;;;;;;4.65;3.17;;;25.00;50.40;;;;;;7370971;19;20015;-78
2022/07/30 07:08:10;;;;;;;7.63;2.80;;;25.00;50.20;;;;;;7392259;19;20038;-77
2022/07/30 07:10:40;;;;;;;7.50;3.30;;;25.10;50.30;;;;;;7369191;19;20099;-78
2022/07/30 07:13:10;;;;;;;9.68;2.85;;;25.10;50.50;;;;;;7368561;19;20641;-76
2022/07/30 07:15:39;;;;;;;10.23;3.10;;;25.20;50.40;;;;;;7370208;19;20118;-77
2022/07/30 07:18:18;;;;;;;5.68;2.90;;;25.10;50.10;;;;;;7371114;19;20024;-79
2022/07/30 07:20:49;;;;;;;4.97;2.83;;;25.00;49.30;;;;;;7368521;19;20464;-78
2022/07/30 07:23:18;;;;;;;7.55;3.30;;;24.90;49.10;;;;;;7389946;19;20019;-77
2022/07/30 07:25:47;;;;;;;4.35;2.92;;;25.00;48.70;;;;;;7370060;19;20035;-75
2022/07/30 07:28:18;;;;;;;9.32;3.40;;;25.00;48.90;;;;;;7371380;19;20029;-76
2022/07/30 07:30:49;;;;;;;;;;;25.00;48.60;;;;;;7371041;19;20485;-78
2022/07/30 07:33:19;;;;;;;6.70;2.78;;;25.20;48.40;;;;;;7367989;19;19919;-76
2022/07/30 07:35:53;;;;;;;7.53;3.03;;;25.20;47.90;;;;;;7371461;19;20031;-76
2022/07/30 07:38:21;;;;;;;7.95;3.05;;;25.20;48.10;;;;;;7389252;19;20043;-77
2022/07/30 07:40:54;;;;;;;4.50;3.00;;;25.30;48.00;;;;;;7367333;19;20047;-76
2022/07/30 07:43:26;;;;;;;11.18;3.40;;;25.30;47.90;;;;;;7369595;19;20469;-77
2022/07/30 07:45:58;;;;;;;6.78;2.97;;;25.30;48.10;;;;;;7371199;19;20007;-76
2022/07/30 07:48:27;;;;;;;10.75;3.50;;;25.30;48.20;;;;;;7367169;19;20367;-77
2022/07/30 07:51:01;;;;;;;9.05;2.85;;;25.40;47.80;;;;;;7372674;19;20050;-77
2022/07/30 07:53:32;;;;;;;5.10;2.97;;;25.50;47.70;;;;;;7376130;19;20248;-76
2022/07/30 07:56:01;;;;;;;7.18;2.97;;;25.50;47.60;;;;;;7387625;19;20003;-75
2022/07/30 07:58:30;;;;;;;7.63;3.15;;;25.60;47.60;;;;;;7364677;19;20035;-77
2022/07/30 08:00:59;;;;;;;6.07;2.65;;;25.60;47.40;;;;;;7365597;19;20449;-78
2022/07/30 08:03:28;;;;;;;3.92;2.50;;;25.60;47.50;;;;;;7368037;19;20025;-77
2022/07/30 08:06:04;;;;;;;8.18;2.50;;;25.70;46.60;;;;;;7371795;19;20047;-76
2022/07/30 08:08:35;;;;;;;7.15;2.47;;;25.70;46.10;;;;;;7366689;19;20006;-77
2022/07/30 08:11:04;;;;;;;7.72;2.65;;;25.80;46.20;;;;;;7389886;19;20517;-76
2022/07/30 08:13:33;;;;;;;6.72;2.13;;;25.90;45.10;;;;;;7370006;19;20023;-77
2022/07/30 08:16:07;;;;;;;10.00;2.30;;;25.90;43.80;;;;;;7370287;19;20055;-75
2022/07/30 08:18:37;;;;;;;6.68;2.10;;;26.00;44.10;;;;;;7370529;19;20011;-75
2022/07/30 08:21:09;;;;;;;3.17;1.93;;;26.10;44.40;;;;;;7368449;19;20015;-77
2022/07/30 08:23:41;;;;;;;4.50;2.20;;;26.10;43.90;;;;;;7367771;19;20267;-77
2022/07/30 08:26:10;;;;;;;5.90;2.22;;;26.20;43.50;;;;;;7388541;19;20034;-76
2022/07/30 08:28:41;;;;;;;3.78;1.92;;;26.30;43.80;;;;;;7367801;19;20036;-77
2022/07/30 08:31:14;;;;;;;6.95;2.00;;;26.20;43.70;;;;;;7369726;19;20010;-77
2022/07/30 08:33:46;;;;;;;7.93;1.95;;;26.30;43.60;;;;;;7367743;19;20453;-76
2022/07/30 08:36:18;;;;;;;7.07;1.80;;;26.30;43.70;;;;;;7370531;19;20002;-77
2022/07/30 08:38:47;;;;;;;5.15;1.75;;;26.30;44.00;;;;;;7368948;19;20035;-77
2022/07/30 08:41:18;;;;;;;4.88;1.88;;;26.30;43.30;;;;;;7389212;19;20034;-77
2022/07/30 08:43:51;;;;;;;6.00;2.17;;;26.40;43.60;;;;;;7367848;19;20023;-77
2022/07/30 08:46:22;;;;;;;3.97;1.80;;;26.50;43.50;;;;;;7366731;19;20794;-77
2022/07/30 08:48:54;;;;;;;3.38;2.00;;;26.60;43.10;;;;;;7367758;19;20022;-76
2022/07/30 08:51:28;;;;;;;5.10;2.00;;;26.40;43.10;;;;;;7366116;19;20019;-76
2022/07/30 08:53:59;;;;;;;9.60;1.98;;;26.60;42.60;;;;;;7368269;19;20089;-77
2022/07/30 08:56:28;;;;;;;;;;;26.60;43.00;;;;;;7386965;19;20018;-76
2022/07/30 08:58:58;;;;;;;3.00;1.83;;;26.70;42.70;;;;;;7367877;19;19935;-77
2022/07/30 09:01:29;;;;;;;7.10;1.70;;;26.50;42.40;;;;;;7362840;19;20445;-77
2022/07/30 09:03:59;;;;;;;5.18;1.60;;;26.50;40.90;;;;;;7365733;19;20028;-77
2022/07/30 09:06:30;;;;;;;6.35;1.70;;;26.60;40.60;;;;;;7365576;19;20014;-77
2022/07/30 09:09:02;;;;;;;2.10;1.20;;;26.60;40.00;;;;;;7364382;19;20097;-78
2022/07/30 09:11:32;;;;;;;3.40;1.67;;;26.50;39.40;;;;;;7367569;19;20014;-77
2022/07/30 09:14:11;;;;;;;6.80;1.75;;;26.50;40.20;;;;;;7387274;19;20018;-77
2022/07/30 09:16:40;;;;;;;5.00;1.60;;;26.50;40.30;;;;;;7365902;19;20018;-77
2022/07/30 09:19:17;;;;;;;3.00;1.67;;;26.60;40.40;;;;;;7367670;19;20082;-74
2022/07/30 09:22:03;;;;;;;3.28;1.70;;;26.60;40.40;;;;;;7369976;19;20046;-76
2022/07/30 09:24:43;;;;;;;4.07;1.65;;;26.60;40.00;;;;;;7374112;19;20446;-76
2022/07/30 09:27:12;;;;;;;5.97;1.80;;;26.70;40.30;;;;;;7371268;19;20014;-75
2022/07/30 09:29:41;;;;;;;2.15;1.30;;;26.80;40.60;;;;;;7372176;19;20035;-78
2022/07/30 09:32:10;;;;;;;3.78;1.83;;;26.90;40.90;;;;;;7394653;19;20010;-76
2022/07/30 09:34:41;;;;;;;5.00;1.67;;;27.00;40.50;;;;;;7371012;19;20078;-77
2022/07/30 09:37:21;;;;;;;4.57;1.60;;;27.00;40.20;;;;;;7374552;19;20656;-77
2022/07/30 09:39:50;;;;;;;3.83;1.88;;;27.10;40.30;;;;;;7374972;19;20018;-77
2022/07/30 09:42:22;;;;;;;3.35;1.65;;;27.10;39.90;;;;;;7374052;19;20010;-77
2022/07/30 09:44:51;;;;;;;2.88;1.40;;;27.10;40.40;;;;;;7370783;19;20650;-77
2022/07/30 09:47:33;;;;;;;5.55;1.73;;;27.10;40.40;;;;;;7390257;19;20742;-77
2022/07/30 09:50:08;;;;;;;4.78;1.70;;;27.10;40.20;;;;;;7373739;19;20014;-78
2022/07/30 09:52:41;;;;;;;5.50;2.00;;;27.10;40.30;;;;;;7371789;19;20025;-77
2022/07/30 09:55:11;;;;;;;5.85;1.55;;;27.10;40.50;;;;;;7370746;19;20038;-77
2022/07/30 09:57:57;;;;;;;2.55;1.65;;;27.20;40.80;;;;;;7374364;19;20338;-77
2022/07/30 10:00:29;;;;;;;5.20;1.75;;;27.10;40.80;;;;;;7375149;19;20482;-77
2022/07/30 10:02:59;;;;;;;4.95;2.10;;;27.20;40.40;;;;;;7373339;19;20042;-78
2022/07/30 10:05:28;;;;;;;4.25;1.38;;;27.10;40.60;;;;;;7396724;19;20119;-77
2022/07/30 10:08:02;;;;;;;6.80;1.80;;;27.10;40.50;;;;;;7376894;19;20031;-77
2022/07/30 10:10:33;;;;;;;5.82;1.85;;;27.20;40.40;;;;;;7382794;19;20029;-77
2022/07/30 10:13:06;;;;;;;5.10;1.70;;;27.30;40.30;;;;;;7382922;19;20035;-75
2022/07/30 10:15:36;;;;;;;6.15;1.85;;;27.40;40.40;;;;;;7380018;19;20091;-77
2022/07/30 10:18:08;;;;;;;5.90;1.90;;;27.40;40.00;;;;;;7386481;19;20045;-77
2022/07/30 10:20:38;;;;;;;5.78;1.63;;;27.40;40.10;;;;;;7394072;19;20024;-77
2022/07/30 10:23:12;;;;;;;6.77;1.80;;;27.50;39.90;;;;;;7412667;19;20028;-76
2022/07/30 10:25:45;;;;;;;11.05;2.00;;;27.50;39.90;;;;;;7382828;19;20028;-77
2022/07/30 10:28:15;;;;;;;2.90;1.40;;;27.50;39.80;;;;;;7375856;19;20027;-75
2022/07/30 10:30:45;;;;;;;7.30;1.90;;;27.70;39.80;;;;;;7373537;19;20028;-76
2022/07/30 10:33:14;;;;;;;4.22;1.77;;;27.70;39.60;;;;;;7374456;19;20464;-76
2022/07/30 10:35:45;;;;;;;3.70;1.70;;;27.70;40.10;;;;;;7372304;19;20102;-76
2022/07/30 10:38:19;;;;;;;4.40;1.58;;;27.70;40.00;;;;;;7394428;19;20038;-78
2022/07/30 10:40:52;;;;;;;2.03;1.65;;;27.80;39.50;;;;;;7370577;19;20071;-76
2022/07/30 10:43:47;;;;;;;2.45;1.67;;;27.80;39.40;;;;;;7373006;19;20019;-78
2022/07/30 10:46:24;;;;;;;5.18;1.63;;;27.70;39.60;;;;;;7370897;19;20010;-75
2022/07/30 10:48:54;;;;;;;7.75;1.70;;;27.70;40.00;;;;;;7370452;19;20018;-75
2022/07/30 10:51:26;;;;;;;4.45;1.80;;;27.80;39.70;;;;;;7370944;19;20014;-76
2022/07/30 10:53:58;;;;;;;2.25;1.50;;;27.80;39.50;;;;;;7373044;19;20306;-77
2022/07/30 10:56:27;;;;;;;4.45;1.70;;;27.90;39.50;;;;;;7394394;19;20027;-77
2022/07/30 10:59:07;;;;;;;6.80;2.10;;;28.00;39.00;;;;;;7368547;19;20019;-77
2022/07/30 11:02:06;;;;;;;3.08;1.73;;;28.00;39.40;;;;;;7367644;19;20018;-77
2022/07/30 11:04:35;;;;;;;4.75;1.63;;;28.00;39.50;;;;;;7370640;19;20026;-77
2022/07/30 11:07:30;;;;;;;5.40;1.80;;;28.00;39.60;;;;;;7370476;19;20038;-76
2022/07/30 11:10:03;;;;;;;7.35;1.70;;;28.10;39.60;;;;;;7369933;19;20054;-76
2022/07/30 11:12:54;;;;;;;5.85;1.98;;;28.10;39.60;;;;;;7369492;19;20019;-75
2022/07/30 11:15:46;;;;;;;3.72;1.60;;;28.10;39.70;;;;;;7368371;19;20965;-76
2022/07/30 11:18:15;;;;;;;5.35;1.60;;;28.20;39.50;;;;;;7369415;19;20070;-76
2022/07/30 11:20:44;;;;;;;4.43;1.60;;;28.30;39.30;;;;;;7366545;19;20019;-76
2022/07/30 11:23:38;;;;;;;7.20;2.13;;;28.40;39.30;;;;;;7389824;19;20074;-76
2022/07/30 11:26:13;;;;;;;5.43;1.60;;;28.40;39.30;;;;;;7370559;19;20015;-76
2022/07/30 11:28:45;;;;;;;4.07;1.52;;;28.50;39.40;;;;;;7370720;19;20022;-77
2022/07/30 11:31:30;;;;;;;2.03;1.60;;;28.50;39.40;;;;;;7369372;19;20041;-76
2022/07/30 11:34:27;;;;;;;3.90;1.73;;;28.30;39.20;;;;;;7370563;19;20015;-76
2022/07/30 11:37:11;;;;;;;2.75;1.65;;;28.40;38.70;;;;;;7371258;19;20340;-76
2022/07/30 11:40:13;;;;;;;1.98;1.50;;;28.50;39.40;;;;;;7371281;19;20011;-76
2022/07/30 11:42:45;;;;;;;6.20;1.60;;;28.50;39.40;;;;;;7366856;19;20032;-76
2022/07/30 11:45:25;;;;;;;3.53;1.85;;;28.50;38.50;;;;;;7366216;19;20547;-76
2022/07/30 11:47:58;;;;;;;3.50;1.42;;;28.70;38.30;;;;;;7364035;19;20434;-77
2022/07/30 11:50:29;;;;;;;4.38;1.40;;;28.60;38.10;;;;;;7386967;19;20323;-76
2022/07/30 11:53:00;;;;;;;4.97;1.60;;;28.60;37.50;;;;;;7368465;19;20015;-76
2022/07/30 11:55:31;;;;;;;2.67;1.45;;;28.50;38.10;;;;;;7366806;19;20015;-76
2022/07/30 11:58:06;;;;;;;2.15;1.58;;;28.70;38.10;;;;;;7365016;19;20139;-76
2022/07/30 12:00:37;;;;;;;1.60;1.50;;;28.80;38.00;;;;;;7363957;19;21720;-75
2022/07/30 12:03:14;;;;;;;7.15;1.67;;;29.00;38.10;;;;;;7364123;19;20018;-76
2022/07/30 12:05:45;;;;;;;2.92;1.73;;;29.10;37.80;;;;;;7364478;19;20022;-76
2022/07/30 12:08:15;;;;;;;3.97;1.10;;;29.10;38.30;;;;;;7390665;19;20018;-75
2022/07/30 12:10:45;;;;;;;3.30;1.30;;;29.20;37.90;;;;;;7368776;19;20018;-76
2022/07/30 12:13:18;;;;;;;5.10;1.55;;;29.30;37.50;;;;;;7369280;19;20010;-76
2022/07/30 12:15:48;;;;;;;6.88;1.60;;;29.40;37.70;;;;;;7367839;19;20014;-76
2022/07/30 12:18:26;;;;;;;4.53;1.60;;;29.40;37.10;;;;;;7369229;19;20043;-76
2022/07/30 12:20:56;;;;;;;2.47;1.50;;;29.30;37.50;;;;;;7370771;19;20014;-76
2022/07/30 12:23:25;;;;;;;6.03;1.70;;;29.40;37.50;;;;;;7389108;19;20030;-76
2022/07/30 12:25:54;;;;;;;3.53;2.05;;;29.50;37.40;;;;;;7370099;19;20179;-76
2022/07/30 12:28:27;;;;;;;3.50;2.17;;;29.60;37.40;;;;;;7370467;19;20094;-76
2022/07/30 12:30:57;;;;;;;6.88;1.60;;;29.50;38.00;;;;;;7370994;19;20035;-76
2022/07/30 12:33:26;;;;;;;2.42;1.40;;;29.60;37.60;;;;;;7368474;19;20022;-76
2022/07/30 12:35:56;;;;;;;4.85;1.70;;;29.80;37.50;;;;;;7370635;19;20014;-76
2022/07/30 12:38:26;;;;;;;4.15;1.52;;;29.80;37.60;;;;;;7390915;19;20529;-75
2022/07/30 12:40:58;;;;;;;6.07;1.52;;;29.90;37.30;;;;;;7369157;19;20050;-75
2022/07/30 12:43:57;;;;;;;4.40;1.80;;;29.80;37.40;;;;;;7369792;19;20019;-75
2022/07/30 12:46:29;;;;;;;4.20;1.63;;;30.00;37.50;;;;;;7370351;19;20028;-77
2022/07/30 12:48:59;;;;;;;3.85;1.23;;;30.10;37.50;;;;;;7370684;19;20153;-76
2022/07/30 12:51:31;;;;;;;2.90;1.33;;;29.90;36.90;;;;;;7369797;19;20043;-75
2022/07/30 12:54:04;;;;;;;3.75;1.42;;;30.10;37.40;;;;;;7370134;19;20011;-75
2022/07/30 12:56:33;;;;;;;2.20;1.30;;;30.30;37.00;;;;;;7373797;19;20090;-75
2022/07/30 12:59:02;;;;;;;9.90;2.00;;;30.50;37.00;;;;;;7397915;19;20042;-75
2022/07/30 13:01:48;;;;;;;4.03;1.50;;;30.60;36.80;;;;;;7376554;19;20010;-75
2022/07/30 13:04:17;;;;;;;2.75;1.60;;;30.50;36.60;;;;;;7377661;19;20010;-75
2022/07/30 13:07:04;;;;;;;5.65;1.65;;;30.60;36.00;;;;;;7376160;19;20090;-75
2022/07/30 13:09:32;;;;;;;3.78;1.60;;;30.70;36.30;;;;;;7375971;19;20011;-75
2022/07/30 13:12:01;;;;;;;4.22;1.58;;;30.80;36.30;;;;;;7376186;19;20084;-75